Thaani — HBY4477 — position and weather

sailwx.info

Track history (hours):
 
Tides and Currents Weather Stations Pressure Air Temp Water Temp Dewpoint Dewpoint Depression Visibility Wind Speed Wind Dir Waves Ship Positions

Thaani

Last reported at 2015-Jul-30 17:33 UTC. Time now 2015-Jul-30 18:15 UTC.
Position N 37°57' W 008°54'.

Length 14 m.

Type: Pleasure craft. MMSI: 269102970.

Date/timePositionNaut miles runAvg speedWind from/ knotsBaromVisibWave heightAir tempDewpointWater temp
2015-Jul-30 17:33N 37°57' W 008°54'7 6.4
2015-Jul-30 16:33N 38°02' W 008°58'6 6.4
2015-Jul-30 15:33N 38°08' W 009°03'5 5.2
2015-Jul-30 14:33N 38°12' W 009°06'7 6.9
2015-Jul-30 13:31N 38°19' W 009°10'7 7.2
2015-Jul-30 12:31N 38°25' W 009°15'7 6.8
2015-Jul-30 11:28N 38°32' W 009°18'6 6.9
2015-Jul-30 10:33N 38°38' W 009°20'5 4.5
2015-Jul-30 09:32N 38°41' W 009°16'5 3.6
2015-Jul-30 08:12N 38°42' W 009°10'1 0.1
2015-Jul-29 21:16N 38°42' W 009°11'  
2015-Jul-25 11:32N 38°42' W 009°10'0 0.5
2015-Jul-25 10:33N 38°42' W 009°11'6 5.7
2015-Jul-25 09:33N 38°40' W 009°18'6 5.7
2015-Jul-25 08:32N 38°42' W 009°25'  
2015-Jul-21 21:09N 38°42' W 009°25'0 0.0
2015-Jul-21 20:33N 38°42' W 009°25'0 0.0
2015-Jul-21 19:33N 38°42' W 009°25'2 2.0
2015-Jul-21 18:33N 38°41' W 009°27'7 7.0
2015-Jul-21 17:33N 38°48' W 009°31'7 6.9
2015-Jul-21 16:33N 38°55' W 009°30'7 7.3
2015-Jul-21 15:33N 39°02' W 009°29'7 6.9
2015-Jul-21 14:32N 39°09' W 009°28'7 6.8
2015-Jul-21 13:33N 39°15' W 009°27'  
Track history (hours):
 
Tides and Currents Weather Stations Pressure Air Temp Water Temp Dewpoint Dewpoint Depression Visibility Wind Speed Wind Dir Waves Ship Positions

Thaani

Last reported at 2015-Jul-30 17:33 UTC. Time now 2015-Jul-30 18:15 UTC.
Position N 37°57' W 008°54'.

Length 14 m.

Type: Pleasure craft. MMSI: 269102970.

Date/timePositionNaut miles runAvg speedWind from/ knotsBaromVisibWave heightAir tempDewpointWater temp
2015-Jul-30 17:33N 37°57' W 008°54'7 6.4
2015-Jul-30 16:33N 38°02' W 008°58'6 6.4
2015-Jul-30 15:33N 38°08' W 009°03'5 5.2
2015-Jul-30 14:33N 38°12' W 009°06'7 6.9
2015-Jul-30 13:31N 38°19' W 009°10'7 7.2
2015-Jul-30 12:31N 38°25' W 009°15'7 6.8
2015-Jul-30 11:28N 38°32' W 009°18'6 6.9
2015-Jul-30 10:33N 38°38' W 009°20'5 4.5
2015-Jul-30 09:32N 38°41' W 009°16'5 3.6
2015-Jul-30 08:12N 38°42' W 009°10'1 0.1
2015-Jul-29 21:16N 38°42' W 009°11'  
2015-Jul-25 11:32N 38°42' W 009°10'0 0.5
2015-Jul-25 10:33N 38°42' W 009°11'6 5.7
2015-Jul-25 09:33N 38°40' W 009°18'6 5.7
2015-Jul-25 08:32N 38°42' W 009°25'  
2015-Jul-21 21:09N 38°42' W 009°25'0 0.0
2015-Jul-21 20:33N 38°42' W 009°25'0 0.0
2015-Jul-21 19:33N 38°42' W 009°25'2 2.0
2015-Jul-21 18:33N 38°41' W 009°27'7 7.0
2015-Jul-21 17:33N 38°48' W 009°31'7 6.9
2015-Jul-21 16:33N 38°55' W 009°30'7 7.3
2015-Jul-21 15:33N 39°02' W 009°29'7 6.9
2015-Jul-21 14:32N 39°09' W 009°28'7 6.8
2015-Jul-21 13:33N 39°15' W 009°27'  

Dump ship's entire track history